sensor_id;sensor_type;location;lat;lon;timestamp;pressure;altitude;pressure_sealevel;temperature;humidity
19005;BME280;9635;52.078;8.648;2023-04-01T00:00:33;98304.88;;;8.17;89.24
19005;BME280;9635;52.078;8.648;2023-04-01T00:05:37;98291.38;;;8.18;89.14
19005;BME280;9635;52.078;8.648;2023-04-01T00:10:40;98300.75;;;8.23;88.54
19005;BME280;9635;52.078;8.648;2023-04-01T00:15:43;98297.97;;;8.06;89.10
19005;BME280;9635;52.078;8.648;2023-04-01T00:20:49;98297.31;;;8.04;88.37
19005;BME280;9635;52.078;8.648;2023-04-01T00:25:52;98302.75;;;8.21;87.90
19005;BME280;9635;52.078;8.648;2023-04-01T00:30:55;98292.03;;;8.12;88.48
19005;BME280;9635;52.078;8.648;2023-04-01T00:36:07;98294.38;;;8.15;87.87
19005;BME280;9635;52.078;8.648;2023-04-01T00:41:12;98287.88;;;7.92;87.91
19005;BME280;9635;52.078;8.648;2023-04-01T00:46:17;98277.28;;;8.08;87.15
19005;BME280;9635;52.078;8.648;2023-04-01T00:51:24;98280.78;;;8.09;86.98
19005;BME280;9635;52.078;8.648;2023-04-01T00:56:31;98285.97;;;8.10;86.82
19005;BME280;9635;52.078;8.648;2023-04-01T01:01:35;98277.78;;;8.04;87.57
19005;BME280;9635;52.078;8.648;2023-04-01T01:06:46;98291.97;;;8.04;88.10
19005;BME280;9635;52.078;8.648;2023-04-01T01:11:58;98285.47;;;8.07;87.81
19005;BME280;9635;52.078;8.648;2023-04-01T01:17:11;98285.16;;;8.10;87.65
19005;BME280;9635;52.078;8.648;2023-04-01T01:22:32;98276.22;;;8.35;86.81
19005;BME280;9635;52.078;8.648;2023-04-01T01:27:38;98292.09;;;8.29;86.84
19005;BME280;9635;52.078;8.648;2023-04-01T01:33:08;98275.41;;;8.35;86.51
19005;BME280;9635;52.078;8.648;2023-04-01T01:38:17;98265.50;;;8.27;86.49
19005;BME280;9635;52.078;8.648;2023-04-01T01:43:30;98271.16;;;8.24;86.38
19005;BME280;9635;52.078;8.648;2023-04-01T01:48:35;98267.94;;;8.12;85.82
19005;BME280;9635;52.078;8.648;2023-04-01T01:53:40;98268.53;;;8.32;85.51
19005;BME280;9635;52.078;8.648;2023-04-01T01:58:45;98260.47;;;8.24;85.54
19005;BME280;9635;52.078;8.648;2023-04-01T02:03:53;98271.34;;;8.31;85.65
19005;BME280;9635;52.078;8.648;2023-04-01T02:09:01;98268.69;;;8.31;85.13
19005;BME280;9635;52.078;8.648;2023-04-01T02:14:08;98271.50;;;8.21;85.24
19005;BME280;9635;52.078;8.648;2023-04-01T02:19:13;98261.59;;;8.13;85.55
19005;BME280;9635;52.078;8.648;2023-04-01T02:24:28;98267.50;;;8.25;85.78
19005;BME280;9635;52.078;8.648;2023-04-01T02:29:33;98272.63;;;8.10;86.34
19005;BME280;9635;52.078;8.648;2023-04-01T02:34:36;98269.22;;;8.00;87.20
19005;BME280;9635;52.078;8.648;2023-04-01T02:39:40;98268.69;;;7.97;87.54
19005;BME280;9635;52.078;8.648;2023-04-01T02:44:44;98264.41;;;8.04;86.96
19005;BME280;9635;52.078;8.648;2023-04-01T02:49:48;98275.22;;;7.94;87.39
19005;BME280;9635;52.078;8.648;2023-04-01T02:54:52;98270.78;;;8.11;86.75
19005;BME280;9635;52.078;8.648;2023-04-01T02:59:55;98271.19;;;7.90;87.10
19005;BME280;9635;52.078;8.648;2023-04-01T03:04:58;98273.41;;;8.03;86.79
19005;BME280;9635;52.078;8.648;2023-04-01T03:10:02;98271.09;;;8.08;86.70
19005;BME280;9635;52.078;8.648;2023-04-01T03:15:06;98287.13;;;8.08;86.22
19005;BME280;9635;52.078;8.648;2023-04-01T03:20:13;98268.47;;;8.16;86.47
19005;BME280;9635;52.078;8.648;2023-04-01T03:25:18;98282.19;;;8.21;86.05
19005;BME280;9635;52.078;8.648;2023-04-01T03:30:21;98288.00;;;8.16;86.12
19005;BME280;9635;52.078;8.648;2023-04-01T03:35:25;98282.69;;;8.25;86.14
19005;BME280;9635;52.078;8.648;2023-04-01T03:40:29;98289.03;;;8.15;86.33
19005;BME280;9635;52.078;8.648;2023-04-01T03:45:32;98285.13;;;8.02;86.70
19005;BME280;9635;52.078;8.648;2023-04-01T03:50:35;98289.53;;;8.19;86.30
19005;BME280;9635;52.078;8.648;2023-04-01T03:55:39;98295.31;;;8.06;86.53
19005;BME280;9635;52.078;8.648;2023-04-01T04:00:42;98298.16;;;8.05;86.46
19005;BME280;9635;52.078;8.648;2023-04-01T04:05:46;98295.19;;;8.16;86.29
19005;BME280;9635;52.078;8.648;2023-04-01T04:10:55;98297.41;;;8.21;86.47
19005;BME280;9635;52.078;8.648;2023-04-01T04:15:59;98300.69;;;8.14;86.52
19005;BME280;9635;52.078;8.648;2023-04-01T04:21:03;98301.25;;;8.18;86.63
19005;BME280;9635;52.078;8.648;2023-04-01T04:26:09;98301.25;;;8.18;86.59
19005;BME280;9635;52.078;8.648;2023-04-01T04:31:18;98300.59;;;8.24;86.72
19005;BME280;9635;52.078;8.648;2023-04-01T04:36:22;98300.41;;;8.17;86.64
19005;BME280;9635;52.078;8.648;2023-04-01T04:41:27;98296.22;;;8.15;87.06
19005;BME280;9635;52.078;8.648;2023-04-01T04:46:30;98297.00;;;8.07;92.78
19005;BME280;9635;52.078;8.648;2023-04-01T04:51:45;98302.69;;;8.04;92.08
19005;BME280;9635;52.078;8.648;2023-04-01T04:56:52;98303.19;;;8.08;87.69
19005;BME280;9635;52.078;8.648;2023-04-01T05:01:57;98316.50;;;8.00;87.77
19005;BME280;9635;52.078;8.648;2023-04-01T05:06:59;98310.47;;;7.98;88.07
19005;BME280;9635;52.078;8.648;2023-04-01T05:12:04;98314.94;;;7.89;88.36
19005;BME280;9635;52.078;8.648;2023-04-01T05:17:39;98321.75;;;7.83;88.39
19005;BME280;9635;52.078;8.648;2023-04-01T05:22:44;98321.22;;;7.80;88.78
19005;BME280;9635;52.078;8.648;2023-04-01T05:27:48;98325.25;;;7.84;88.49
19005;BME280;9635;52.078;8.648;2023-04-01T05:32:51;98333.84;;;7.69;88.86
19005;BME280;9635;52.078;8.648;2023-04-01T05:37:54;98327.41;;;7.80;88.76
19005;BME280;9635;52.078;8.648;2023-04-01T05:42:58;98334.91;;;7.77;88.82
19005;BME280;9635;52.078;8.648;2023-04-01T05:48:02;98334.22;;;7.75;88.78
19005;BME280;9635;52.078;8.648;2023-04-01T05:53:11;98341.41;;;7.74;89.09
19005;BME280;9635;52.078;8.648;2023-04-01T05:58:18;98344.03;;;7.66;88.42
19005;BME280;9635;52.078;8.648;2023-04-01T06:03:22;98344.91;;;7.75;88.86
19005;BME280;9635;52.078;8.648;2023-04-01T06:08:25;98346.50;;;7.85;88.56
19005;BME280;9635;52.078;8.648;2023-04-01T06:13:43;98340.00;;;7.88;88.26
19005;BME280;9635;52.078;8.648;2023-04-01T06:18:57;98356.72;;;7.90;88.31
19005;BME280;9635;52.078;8.648;2023-04-01T06:24:19;98361.59;;;7.94;88.53
19005;BME280;9635;52.078;8.648;2023-04-01T06:29:39;98363.94;;;7.98;88.40
19005;BME280;9635;52.078;8.648;2023-04-01T06:46:00;98382.72;;;8.32;88.27
19005;BME280;9635;52.078;8.648;2023-04-01T06:51:30;98384.44;;;8.67;88.93
19005;BME280;9635;52.078;8.648;2023-04-01T06:57:00;98384.53;;;8.92;89.10
19005;BME280;9635;52.078;8.648;2023-04-01T07:02:20;98381.69;;;9.01;88.71
19005;BME280;9635;52.078;8.648;2023-04-01T07:07:31;98397.56;;;8.52;87.28
19005;BME280;9635;52.078;8.648;2023-04-01T07:12:43;98393.75;;;8.63;88.00
19005;BME280;9635;52.078;8.648;2023-04-01T07:18:29;98408.44;;;8.51;88.72
19005;BME280;9635;52.078;8.648;2023-04-01T07:23:38;98407.91;;;8.47;88.53
19005;BME280;9635;52.078;8.648;2023-04-01T07:28:57;98412.97;;;8.50;88.87
19005;BME280;9635;52.078;8.648;2023-04-01T07:34:19;98413.63;;;8.52;88.50
19005;BME280;9635;52.078;8.648;2023-04-01T07:39:32;98417.28;;;8.51;91.48
19005;BME280;9635;52.078;8.648;2023-04-01T07:44:54;98418.69;;;8.37;90.82
19005;BME280;9635;52.078;8.648;2023-04-01T07:50:11;98431.88;;;8.39;89.65
19005;BME280;9635;52.078;8.648;2023-04-01T07:55:20;98430.69;;;8.51;89.55
19005;BME280;9635;52.078;8.648;2023-04-01T08:00:30;98436.53;;;8.55;89.18
19005;BME280;9635;52.078;8.648;2023-04-01T08:05:54;98439.91;;;8.39;89.74
19005;BME280;9635;52.078;8.648;2023-04-01T08:11:06;98452.84;;;8.44;89.64
19005;BME280;9635;52.078;8.648;2023-04-01T08:16:35;98459.09;;;8.52;89.82
19005;BME280;9635;52.078;8.648;2023-04-01T08:21:47;98449.44;;;8.59;89.73
19005;BME280;9635;52.078;8.648;2023-04-01T08:26:55;98459.75;;;8.72;89.72
19005;BME280;9635;52.078;8.648;2023-04-01T08:32:03;98472.25;;;8.72;89.89
19005;BME280;9635;52.078;8.648;2023-04-01T08:37:14;98474.91;;;8.98;90.40
19005;BME280;9635;52.078;8.648;2023-04-01T08:42:45;98478.09;;;9.01;90.01
19005;BME280;9635;52.078;8.648;2023-04-01T08:53:35;98486.09;;;9.27;90.22
19005;BME280;9635;52.078;8.648;2023-04-01T09:04:26;98490.00;;;9.49;89.51
19005;BME280;9635;52.078;8.648;2023-04-01T09:09:56;98484.19;;;9.79;89.85
19005;BME280;9635;52.078;8.648;2023-04-01T09:21:17;98499.69;;;10.01;88.73
19005;BME280;9635;52.078;8.648;2023-04-01T09:32:11;98505.19;;;10.00;87.67
19005;BME280;9635;52.078;8.648;2023-04-01T09:37:34;98515.09;;;10.32;86.78
19005;BME280;9635;52.078;8.648;2023-04-01T09:42:49;98521.97;;;10.67;87.05
19005;BME280;9635;52.078;8.648;2023-04-01T09:48:11;98522.19;;;10.97;85.59
19005;BME280;9635;52.078;8.648;2023-04-01T09:53:28;98525.13;;;11.35;84.89
19005;BME280;9635;52.078;8.648;2023-04-01T10:10:28;98538.50;;;10.95;81.18
19005;BME280;9635;52.078;8.648;2023-04-01T10:15:59;98544.00;;;11.18;83.39
19005;BME280;9635;52.078;8.648;2023-04-01T10:21:28;98547.91;;;11.55;80.92
19005;BME280;9635;52.078;8.648;2023-04-01T10:26:58;98540.88;;;11.46;80.33
19005;BME280;9635;52.078;8.648;2023-04-01T10:32:38;98546.72;;;11.02;80.18
19005;BME280;9635;52.078;8.648;2023-04-01T10:43:56;98554.66;;;10.05;85.59
19005;BME280;9635;52.078;8.648;2023-04-01T10:49:41;98564.25;;;10.49;87.23
19005;BME280;9635;52.078;8.648;2023-04-01T10:54:49;98560.97;;;11.02;86.95
19005;BME280;9635;52.078;8.648;2023-04-01T11:07:10;98565.72;;;11.56;84.33
19005;BME280;9635;52.078;8.648;2023-04-01T11:18:51;98569.91;;;11.90;82.84
19005;BME280;9635;52.078;8.648;2023-04-01T11:24:18;98579.16;;;11.56;80.57
19005;BME280;9635;52.078;8.648;2023-04-01T11:30:02;98585.72;;;10.41;81.29
19005;BME280;9635;52.078;8.648;2023-04-01T11:35:36;98580.47;;;10.23;84.12
19005;BME280;9635;52.078;8.648;2023-04-01T11:40:48;98593.59;;;10.17;84.94
19005;BME280;9635;52.078;8.648;2023-04-01T11:46:22;98587.38;;;10.50;86.38
19005;BME280;9635;52.078;8.648;2023-04-01T11:51:38;98602.94;;;11.28;87.23
19005;BME280;9635;52.078;8.648;2023-04-01T11:56:56;98609.13;;;11.37;84.51
19005;BME280;9635;52.078;8.648;2023-04-01T12:02:09;98603.13;;;12.05;86.18
19005;BME280;9635;52.078;8.648;2023-04-01T12:07:21;98617.28;;;11.99;81.81
19005;BME280;9635;52.078;8.648;2023-04-01T12:12:31;98615.22;;;12.01;81.49
19005;BME280;9635;52.078;8.648;2023-04-01T12:17:39;98621.66;;;12.00;79.67
19005;BME280;9635;52.078;8.648;2023-04-01T12:22:51;98625.41;;;12.53;80.29
19005;BME280;9635;52.078;8.648;2023-04-01T12:28:10;98633.63;;;12.29;78.00
19005;BME280;9635;52.078;8.648;2023-04-01T12:33:29;98642.66;;;12.05;76.94
19005;BME280;9635;52.078;8.648;2023-04-01T12:38:41;98650.22;;;11.62;77.50
19005;BME280;9635;52.078;8.648;2023-04-01T12:44:08;98645.50;;;12.43;81.24
19005;BME280;9635;52.078;8.648;2023-04-01T12:49:30;98641.66;;;12.60;77.37
19005;BME280;9635;52.078;8.648;2023-04-01T12:55:17;98655.16;;;12.98;75.89
19005;BME280;9635;52.078;8.648;2023-04-01T13:00:34;98659.19;;;12.79;77.10
19005;BME280;9635;52.078;8.648;2023-04-01T13:11:34;98675.91;;;12.97;73.95
19005;BME280;9635;52.078;8.648;2023-04-01T13:16:46;98681.53;;;12.65;73.03
19005;BME280;9635;52.078;8.648;2023-04-01T13:21:58;98691.25;;;12.89;74.72
19005;BME280;9635;52.078;8.648;2023-04-01T13:27:09;98689.22;;;13.14;70.73
19005;BME280;9635;52.078;8.648;2023-04-01T13:32:26;98693.50;;;13.76;70.82
19005;BME280;9635;52.078;8.648;2023-04-01T13:37:52;98688.50;;;13.73;69.65
19005;BME280;9635;52.078;8.648;2023-04-01T13:43:02;98700.97;;;13.88;70.38
19005;BME280;9635;52.078;8.648;2023-04-01T13:48:28;98699.28;;;14.02;67.85
19005;BME280;9635;52.078;8.648;2023-04-01T13:53:59;98703.75;;;13.80;69.79
19005;BME280;9635;52.078;8.648;2023-04-01T13:59:30;98713.72;;;13.80;71.80
19005;BME280;9635;52.078;8.648;2023-04-01T14:04:47;98719.84;;;12.98;70.32
19005;BME280;9635;52.078;8.648;2023-04-01T14:10:02;98735.75;;;13.08;74.27
19005;BME280;9635;52.078;8.648;2023-04-01T14:15:23;98732.16;;;13.15;72.26
19005;BME280;9635;52.078;8.648;2023-04-01T14:20:37;98748.69;;;12.66;73.24
19005;BME280;9635;52.078;8.648;2023-04-01T14:26:03;98755.81;;;12.59;75.79
19005;BME280;9635;52.078;8.648;2023-04-01T14:31:30;98755.41;;;12.23;74.50
19005;BME280;9635;52.078;8.648;2023-04-01T14:36:56;98768.84;;;12.39;75.54
19005;BME280;9635;52.078;8.648;2023-04-01T14:42:18;98778.66;;;12.24;77.14
19005;BME280;9635;52.078;8.648;2023-04-01T14:47:48;98772.28;;;12.16;76.70
19005;BME280;9635;52.078;8.648;2023-04-01T14:52:59;98787.13;;;12.04;75.88
19005;BME280;9635;52.078;8.648;2023-04-01T14:58:10;98786.00;;;11.90;76.95
19005;BME280;9635;52.078;8.648;2023-04-01T15:03:15;98797.06;;;11.87;77.08
19005;BME280;9635;52.078;8.648;2023-04-01T15:08:25;98802.78;;;11.84;78.82
19005;BME280;9635;52.078;8.648;2023-04-01T15:13:45;98808.00;;;11.94;80.10
19005;BME280;9635;52.078;8.648;2023-04-01T15:19:01;98823.16;;;11.79;79.70
19005;BME280;9635;52.078;8.648;2023-04-01T15:24:15;98828.84;;;12.00;80.98
19005;BME280;9635;52.078;8.648;2023-04-01T15:29:34;98838.63;;;11.77;80.46
19005;BME280;9635;52.078;8.648;2023-04-01T15:34:47;98855.97;;;11.58;80.70
19005;BME280;9635;52.078;8.648;2023-04-01T15:39:58;98867.72;;;11.73;82.04
19005;BME280;9635;52.078;8.648;2023-04-01T15:45:15;98861.94;;;11.19;80.38
19005;BME280;9635;52.078;8.648;2023-04-01T15:50:51;98879.16;;;10.92;83.53
19005;BME280;9635;52.078;8.648;2023-04-01T15:56:06;98887.50;;;10.80;85.01
19005;BME280;9635;52.078;8.648;2023-04-01T16:01:23;98888.16;;;10.74;84.97
19005;BME280;9635;52.078;8.648;2023-04-01T16:06:50;98900.94;;;10.80;85.17
19005;BME280;9635;52.078;8.648;2023-04-01T16:12:02;98903.34;;;10.92;85.83
19005;BME280;9635;52.078;8.648;2023-04-01T16:22:38;98920.16;;;11.02;86.01
19005;BME280;9635;52.078;8.648;2023-04-01T16:27:48;98931.88;;;10.93;85.88
19005;BME280;9635;52.078;8.648;2023-04-01T16:33:01;98931.19;;;10.91;85.58
19005;BME280;9635;52.078;8.648;2023-04-01T16:38:13;98952.66;;;10.82;85.22
19005;BME280;9635;52.078;8.648;2023-04-01T16:43:25;98960.78;;;10.65;84.72
19005;BME280;9635;52.078;8.648;2023-04-01T16:48:45;98966.59;;;10.52;84.70
19005;BME280;9635;52.078;8.648;2023-04-01T16:54:02;98980.38;;;10.57;85.41
19005;BME280;9635;52.078;8.648;2023-04-01T16:59:17;98997.22;;;10.41;85.21
19005;BME280;9635;52.078;8.648;2023-04-01T17:04:31;99008.50;;;9.73;85.09
19005;BME280;9635;52.078;8.648;2023-04-01T17:09:45;99022.44;;;9.59;84.80
19005;BME280;9635;52.078;8.648;2023-04-01T17:14:59;99042.25;;;9.48;84.80
19005;BME280;9635;52.078;8.648;2023-04-01T17:20:31;99045.25;;;9.08;84.86
19005;BME280;9635;52.078;8.648;2023-04-01T17:31:07;99075.69;;;8.79;85.45
19005;BME280;9635;52.078;8.648;2023-04-01T17:36:21;99086.56;;;8.68;85.07
19005;BME280;9635;52.078;8.648;2023-04-01T17:41:32;99105.41;;;8.76;84.95
19005;BME280;9635;52.078;8.648;2023-04-01T17:46:56;99115.88;;;8.59;85.06
19005;BME280;9635;52.078;8.648;2023-04-01T17:52:09;99128.13;;;8.52;85.26
19005;BME280;9635;52.078;8.648;2023-04-01T17:57:37;99142.31;;;8.43;85.08
19005;BME280;9635;52.078;8.648;2023-04-01T18:02:51;99164.28;;;8.27;85.21
19005;BME280;9635;52.078;8.648;2023-04-01T18:08:11;99173.03;;;8.29;85.21
19005;BME280;9635;52.078;8.648;2023-04-01T18:13:25;99176.13;;;8.34;85.12
19005;BME280;9635;52.078;8.648;2023-04-01T18:18:46;99192.59;;;8.30;85.52
19005;BME280;9635;52.078;8.648;2023-04-01T18:23:56;99218.41;;;7.90;85.44
19005;BME280;9635;52.078;8.648;2023-04-01T18:29:12;99237.41;;;7.97;85.30
19005;BME280;9635;52.078;8.648;2023-04-01T18:34:37;99254.84;;;7.61;86.13
19005;BME280;9635;52.078;8.648;2023-04-01T18:39:46;99261.09;;;7.71;86.00
19005;BME280;9635;52.078;8.648;2023-04-01T18:44:54;99275.44;;;7.70;85.45
19005;BME280;9635;52.078;8.648;2023-04-01T18:50:11;99291.31;;;7.41;86.12
19005;BME280;9635;52.078;8.648;2023-04-01T18:55:29;99299.91;;;7.44;85.27
19005;BME280;9635;52.078;8.648;2023-04-01T19:00:36;99321.91;;;7.37;85.74
19005;BME280;9635;52.078;8.648;2023-04-01T19:05:45;99327.63;;;7.32;85.63
19005;BME280;9635;52.078;8.648;2023-04-01T19:10:58;99333.66;;;7.24;85.98
19005;BME280;9635;52.078;8.648;2023-04-01T19:16:08;99351.19;;;7.06;85.17
19005;BME280;9635;52.078;8.648;2023-04-01T19:21:19;99356.13;;;7.22;85.26
19005;BME280;9635;52.078;8.648;2023-04-01T19:26:27;99376.81;;;7.09;85.10
19005;BME280;9635;52.078;8.648;2023-04-01T19:31:44;99386.66;;;7.08;85.60
19005;BME280;9635;52.078;8.648;2023-04-01T19:36:54;99397.03;;;7.22;85.77
19005;BME280;9635;52.078;8.648;2023-04-01T19:42:05;99394.44;;;7.00;84.90
19005;BME280;9635;52.078;8.648;2023-04-01T19:47:19;99413.47;;;6.84;85.43
19005;BME280;9635;52.078;8.648;2023-04-01T19:52:30;99431.44;;;6.82;85.02
19005;BME280;9635;52.078;8.648;2023-04-01T19:57:40;99441.53;;;6.78;85.03
19005;BME280;9635;52.078;8.648;2023-04-01T20:02:55;99452.69;;;6.72;85.05
19005;BME280;9635;52.078;8.648;2023-04-01T20:08:09;99460.69;;;6.50;84.88
19005;BME280;9635;52.078;8.648;2023-04-01T20:13:21;99475.00;;;6.49;84.73
19005;BME280;9635;52.078;8.648;2023-04-01T20:18:35;99479.13;;;6.53;84.83
19005;BME280;9635;52.078;8.648;2023-04-01T20:23:44;99507.75;;;6.73;84.81
19005;BME280;9635;52.078;8.648;2023-04-01T20:29:04;99507.75;;;6.62;84.71
19005;BME280;9635;52.078;8.648;2023-04-01T20:34:26;99530.78;;;6.52;84.38
19005;BME280;9635;52.078;8.648;2023-04-01T20:39:57;99540.69;;;6.38;84.40
19005;BME280;9635;52.078;8.648;2023-04-01T20:45:20;99544.91;;;6.18;84.09
19005;BME280;9635;52.078;8.648;2023-04-01T20:50:28;99560.31;;;6.26;83.92
19005;BME280;9635;52.078;8.648;2023-04-01T21:01:32;99582.19;;;6.07;83.09
19005;BME280;9635;52.078;8.648;2023-04-01T21:06:48;99594.41;;;5.75;83.72
19005;BME280;9635;52.078;8.648;2023-04-01T21:12:05;99606.53;;;5.79;83.93
19005;BME280;9635;52.078;8.648;2023-04-01T21:17:16;99627.56;;;5.94;83.54
19005;BME280;9635;52.078;8.648;2023-04-01T21:22:58;99631.53;;;5.89;83.89
19005;BME280;9635;52.078;8.648;2023-04-01T21:28:16;99643.56;;;5.70;83.42
19005;BME280;9635;52.078;8.648;2023-04-01T21:33:33;99658.31;;;5.50;83.43
19005;BME280;9635;52.078;8.648;2023-04-01T21:38:48;99667.25;;;5.62;83.54
19005;BME280;9635;52.078;8.648;2023-04-01T21:44:27;99682.19;;;5.52;83.51
19005;BME280;9635;52.078;8.648;2023-04-01T21:55:52;99714.47;;;5.47;83.89
19005;BME280;9635;52.078;8.648;2023-04-01T22:01:15;99728.09;;;5.43;83.60
19005;BME280;9635;52.078;8.648;2023-04-01T22:06:28;99729.50;;;5.10;83.53
19005;BME280;9635;52.078;8.648;2023-04-01T22:11:44;99745.66;;;5.07;83.35
19005;BME280;9635;52.078;8.648;2023-04-01T22:16:56;99750.41;;;4.89;83.18
19005;BME280;9635;52.078;8.648;2023-04-01T22:22:04;99759.66;;;4.96;82.67
19005;BME280;9635;52.078;8.648;2023-04-01T22:27:14;99764.84;;;4.72;82.17
19005;BME280;9635;52.078;8.648;2023-04-01T22:32:24;99777.59;;;4.67;81.94
19005;BME280;9635;52.078;8.648;2023-04-01T22:37:36;99780.47;;;4.77;81.77
19005;BME280;9635;52.078;8.648;2023-04-01T22:42:42;99787.41;;;5.06;82.01
19005;BME280;9635;52.078;8.648;2023-04-01T22:47:52;99805.44;;;4.89;82.40
19005;BME280;9635;52.078;8.648;2023-04-01T22:53:08;99822.59;;;4.97;82.10
19005;BME280;9635;52.078;8.648;2023-04-01T22:58:18;99824.38;;;4.84;82.17
19005;BME280;9635;52.078;8.648;2023-04-01T23:03:28;99838.41;;;5.00;82.62
19005;BME280;9635;52.078;8.648;2023-04-01T23:08:53;99854.69;;;4.81;83.02
19005;BME280;9635;52.078;8.648;2023-04-01T23:14:11;99863.94;;;4.76;82.77
19005;BME280;9635;52.078;8.648;2023-04-01T23:19:24;99879.13;;;4.74;83.13
19005;BME280;9635;52.078;8.648;2023-04-01T23:24:32;99883.00;;;4.55;83.67
19005;BME280;9635;52.078;8.648;2023-04-01T23:29:38;99901.16;;;4.34;84.01
19005;BME280;9635;52.078;8.648;2023-04-01T23:34:48;99902.22;;;4.17;83.89
19005;BME280;9635;52.078;8.648;2023-04-01T23:39:53;99926.81;;;4.07;84.09
19005;BME280;9635;52.078;8.648;2023-04-01T23:44:58;99934.97;;;4.18;84.26
19005;BME280;9635;52.078;8.648;2023-04-01T23:50:09;99942.94;;;4.04;84.25
19005;BME280;9635;52.078;8.648;2023-04-01T23:55:15;99948.06;;;4.21;84.55
